createdAt,value
2022-09-02T00:01:09.963Z,74.60
2022-09-02T00:05:57.051Z,74.80
2022-09-02T00:10:38.060Z,75.10
2022-09-02T00:15:16.227Z,75.40
2022-09-02T00:19:56.138Z,75.60
2022-09-02T00:24:36.484Z,75.70
2022-09-02T00:29:24.853Z,75.70
2022-09-02T00:34:03.755Z,75.80
2022-09-02T00:38:44.266Z,75.80
2022-09-02T00:43:28.580Z,75.90
2022-09-02T00:48:16.188Z,76.00
2022-09-02T00:52:59.983Z,76.10
2022-09-02T00:57:47.845Z,76.40
2022-09-02T01:07:12.607Z,76.90
2022-09-02T01:11:51.925Z,77.10
2022-09-02T01:16:31.153Z,77.40
2022-09-02T01:21:05.577Z,77.60
2022-09-02T01:25:43.061Z,78.10
2022-09-02T01:30:20.620Z,78.40
2022-09-02T01:34:54.655Z,78.60
2022-09-02T01:39:29.608Z,78.80
2022-09-02T01:44:07.849Z,79.10
2022-09-02T01:48:42.811Z,79.70
2022-09-02T01:53:18.324Z,80.00
2022-09-02T01:57:53.070Z,80.40
2022-09-02T02:02:30.099Z,80.70
2022-09-02T02:07:09.482Z,81.10
2022-09-02T02:11:45.321Z,81.60
2022-09-02T02:16:22.301Z,82.10
2022-09-02T02:20:57.768Z,82.70
2022-09-02T02:25:31.801Z,83.10
2022-09-02T02:30:07.513Z,83.60
2022-09-02T02:34:42.739Z,84.10
2022-09-02T02:39:18.456Z,84.80
2022-09-02T02:43:53.428Z,85.30
2022-09-02T02:48:27.462Z,85.40
2022-09-02T02:53:03.310Z,85.50
2022-09-02T02:57:40.255Z,85.70
2022-09-02T03:02:14.856Z,85.80
2022-09-02T03:06:49.686Z,86.00
2022-09-02T03:11:25.096Z,86.40
2022-09-02T03:16:01.097Z,86.80
2022-09-02T03:20:35.536Z,87.10
2022-09-02T03:25:14.101Z,87.20
2022-09-02T03:29:48.262Z,87.80
2022-09-02T03:34:23.882Z,88.30
2022-09-02T03:38:58.697Z,88.90
2022-09-02T03:43:34.574Z,89.50
2022-09-02T03:48:09.092Z,89.90
2022-09-02T03:52:46.157Z,90.10
2022-09-02T03:57:23.093Z,90.30
2022-09-02T04:01:57.783Z,90.40
2022-09-02T04:06:32.936Z,90.50
2022-09-02T04:11:11.557Z,90.50
2022-09-02T04:15:49.065Z,90.50
2022-09-02T04:20:24.725Z,90.50
2022-09-02T04:24:58.843Z,90.60
2022-09-02T04:29:35.661Z,90.80
2022-09-02T04:34:10.539Z,91.10
2022-09-02T04:38:47.646Z,91.20
2022-09-02T04:43:23.241Z,91.50
2022-09-02T04:47:59.690Z,91.90
2022-09-02T04:52:34.230Z,91.40
2022-09-02T04:57:08.459Z,90.30
2022-09-02T05:01:43.238Z,88.10
2022-09-02T05:06:27.683Z,84.80
2022-09-02T05:11:07.035Z,79.80
2022-09-02T05:15:44.985Z,76.90
2022-09-02T05:20:20.274Z,75.30
2022-09-02T05:24:55.872Z,71.00
2022-09-02T05:29:30.776Z,69.00
2022-09-02T05:34:05.245Z,68.40
2022-09-02T05:38:39.811Z,65.90
2022-09-02T05:43:16.297Z,64.70
2022-09-02T05:47:50.888Z,62.80
2022-09-02T05:52:25.188Z,61.30
2022-09-02T05:57:03.088Z,59.80
2022-09-02T06:01:38.714Z,58.00
2022-09-02T06:06:13.366Z,56.10
2022-09-02T06:10:48.827Z,55.70
2022-09-02T06:15:27.670Z,53.90
2022-09-02T06:20:05.671Z,51.10
2022-09-02T06:24:41.149Z,50.30
2022-09-02T06:29:21.144Z,49.60
2022-09-02T06:33:57.644Z,48.10
2022-09-02T06:38:40.564Z,46.80
2022-09-02T06:43:17.948Z,45.90
2022-09-02T06:48:15.078Z,44.80
2022-09-02T06:52:49.917Z,43.30
2022-09-02T06:57:26.763Z,43.60
2022-09-02T07:02:09.334Z,42.40
2022-09-02T07:06:48.811Z,40.80
2022-09-02T07:11:25.616Z,40.70
2022-09-02T07:16:03.384Z,39.80
2022-09-02T07:20:38.171Z,38.60
2022-09-02T07:25:13.776Z,39.10
2022-09-02T07:29:48.966Z,38.70
2022-09-02T07:34:26.036Z,37.40
2022-09-02T07:39:00.137Z,37.40
2022-09-02T07:43:35.045Z,36.40
2022-09-02T07:48:10.687Z,36.20
2022-09-02T07:52:47.040Z,34.90
2022-09-02T07:57:21.370Z,35.20
2022-09-02T08:01:55.942Z,34.50
2022-09-02T08:06:34.911Z,34.20
2022-09-02T08:11:12.277Z,33.40
2022-09-02T08:15:50.854Z,33.50
2022-09-02T08:20:25.109Z,34.00
2022-09-02T08:24:59.626Z,32.80
2022-09-02T08:29:35.463Z,32.80
2022-09-02T08:34:09.877Z,32.60
2022-09-02T08:38:44.528Z,33.00
2022-09-02T08:43:30.367Z,32.70
2022-09-02T08:48:12.761Z,32.70
2022-09-02T08:52:59.292Z,32.90
2022-09-02T08:57:33.643Z,32.60
2022-09-02T09:02:20.358Z,32.20
2022-09-02T09:07:09.360Z,31.10
2022-09-02T09:11:52.451Z,30.50
2022-09-02T09:16:40.949Z,30.30
2022-09-02T09:21:15.527Z,30.60
2022-09-02T09:25:56.015Z,30.60
2022-09-02T09:30:30.513Z,31.10
2022-09-02T09:35:07.846Z,29.30
2022-09-02T09:39:41.997Z,29.30
2022-09-02T09:44:38.042Z,28.90
2022-09-02T09:49:12.147Z,29.80
2022-09-02T09:53:46.959Z,29.00
2022-09-02T09:58:22.775Z,29.10
2022-09-02T10:03:01.005Z,29.60
2022-09-02T10:07:40.241Z,29.30
2022-09-02T10:12:14.792Z,29.70
2022-09-02T10:16:59.761Z,31.00
2022-09-02T10:21:50.966Z,29.60
2022-09-02T10:26:39.116Z,28.80
2022-09-02T10:31:21.435Z,29.30
2022-09-02T10:36:01.762Z,29.30
2022-09-02T10:40:44.573Z,29.00
2022-09-02T10:45:25.754Z,28.60
2022-09-02T10:50:07.516Z,28.90
2022-09-02T10:54:50.340Z,28.90
2022-09-02T10:59:31.784Z,28.50
2022-09-02T11:04:11.207Z,29.10
2022-09-02T11:08:51.295Z,28.60
2022-09-02T11:13:32.728Z,29.50
2022-09-02T11:22:59.321Z,30.20
2022-09-02T11:27:42.654Z,29.80
2022-09-02T11:32:23.039Z,29.10
2022-09-02T11:36:59.724Z,28.40
2022-09-02T11:41:48.890Z,29.40
2022-09-02T11:46:57.043Z,28.70
2022-09-02T11:51:55.143Z,29.10
2022-09-02T11:56:37.236Z,29.50
2022-09-02T12:01:27.911Z,29.30
2022-09-02T12:06:11.606Z,28.40
2022-09-02T12:11:00.075Z,28.90
2022-09-02T12:15:36.396Z,29.30
2022-09-02T12:20:12.485Z,30.30
2022-09-02T12:24:52.480Z,30.80
2022-09-02T12:29:35.300Z,31.50
2022-09-02T12:34:42.433Z,31.60
2022-09-02T12:39:52.937Z,31.40
2022-09-02T12:44:31.978Z,33.40
2022-09-02T12:49:15.439Z,33.70
2022-09-02T12:53:52.076Z,33.60
2022-09-02T12:58:32.281Z,34.00
2022-09-02T13:03:27.507Z,34.30
2022-09-02T13:08:34.262Z,34.90
2022-09-02T13:13:31.942Z,35.20
2022-09-02T13:18:35.284Z,34.60
2022-09-02T13:23:31.960Z,34.40
2022-09-02T13:28:37.514Z,34.40
2022-09-02T13:33:13.427Z,34.60
2022-09-02T13:37:55.896Z,34.90
2022-09-02T13:42:32.750Z,35.40
2022-09-02T13:47:17.327Z,35.40
2022-09-02T13:51:54.760Z,35.10
2022-09-02T13:56:31.717Z,35.10
2022-09-02T14:01:20.925Z,34.60
2022-09-02T14:06:00.048Z,34.60
2022-09-02T14:10:39.048Z,34.50
2022-09-02T14:15:16.331Z,35.00
2022-09-02T14:19:51.492Z,34.90
2022-09-02T14:24:38.731Z,34.30
2022-09-02T14:29:17.172Z,34.70
2022-09-02T14:33:51.851Z,33.90
2022-09-02T14:38:27.807Z,34.10
2022-09-02T14:43:02.711Z,34.30
2022-09-02T14:47:40.202Z,33.60
2022-09-02T14:52:20.094Z,33.70
2022-09-02T14:56:55.335Z,34.20
2022-09-02T15:01:29.361Z,34.80
2022-09-02T15:06:04.867Z,35.90
2022-09-02T15:10:40.321Z,37.00
2022-09-02T15:15:14.395Z,37.00
2022-09-02T15:19:48.861Z,37.00
2022-09-02T15:24:24.326Z,36.70
2022-09-02T15:28:58.522Z,36.60
2022-09-02T15:33:33.252Z,36.40
2022-09-02T15:38:08.797Z,36.60
2022-09-02T15:42:44.219Z,37.00
2022-09-02T15:47:18.277Z,37.20
2022-09-02T15:51:54.911Z,36.90
2022-09-02T15:56:30.747Z,36.90
2022-09-02T16:01:07.437Z,37.70
2022-09-02T16:05:43.218Z,38.10
2022-09-02T16:10:17.331Z,38.40
2022-09-02T16:14:51.392Z,38.60
2022-09-02T16:19:30.275Z,38.60
2022-09-02T16:24:04.901Z,38.70
2022-09-02T16:28:46.287Z,39.00
2022-09-02T16:33:20.736Z,38.80
2022-09-02T16:37:58.341Z,38.70
2022-09-02T16:42:37.402Z,39.00
2022-09-02T16:47:13.863Z,39.30
2022-09-02T16:51:49.590Z,39.60
2022-09-02T16:56:26.082Z,39.90
2022-09-02T17:01:00.162Z,40.00
2022-09-02T17:05:34.211Z,40.40
2022-09-02T17:10:08.552Z,40.60
2022-09-02T17:14:44.085Z,41.10
2022-09-02T17:19:22.491Z,41.50
2022-09-02T17:23:57.247Z,41.80
2022-09-02T17:28:31.307Z,42.10
2022-09-02T17:33:06.810Z,42.60
2022-09-02T17:37:41.224Z,43.00
2022-09-02T17:42:15.398Z,43.40
2022-09-02T17:46:49.462Z,43.70
2022-09-02T17:51:25.518Z,43.80
2022-09-02T17:56:06.356Z,43.80
2022-09-02T18:00:42.396Z,43.80
2022-09-02T18:05:28.870Z,44.10
2022-09-02T18:10:05.372Z,44.00
2022-09-02T18:14:45.836Z,44.00
2022-09-02T18:19:36.504Z,44.20
2022-09-02T18:24:19.197Z,44.50
2022-09-02T18:29:06.023Z,44.70
2022-09-02T18:33:58.753Z,45.80
2022-09-02T18:38:43.249Z,45.30
2022-09-02T18:43:26.154Z,45.60
2022-09-02T18:48:07.037Z,45.80
2022-09-02T18:52:43.805Z,46.10
2022-09-02T18:57:18.737Z,46.20
2022-09-02T19:01:56.391Z,46.40
2022-09-02T19:06:35.978Z,46.60
2022-09-02T19:11:12.930Z,46.80
2022-09-02T19:15:47.356Z,47.20
2022-09-02T19:20:22.132Z,47.70
2022-09-02T19:25:02.976Z,48.10
2022-09-02T19:29:41.270Z,48.40
2022-09-02T19:34:16.999Z,48.70
2022-09-02T19:38:51.178Z,49.10
2022-09-02T19:43:27.061Z,49.40
2022-09-02T19:48:09.183Z,49.80
2022-09-02T19:52:45.345Z,50.10
2022-09-02T19:57:19.430Z,50.40
2022-09-02T20:01:54.853Z,50.60
2022-09-02T20:06:28.936Z,50.80
2022-09-02T20:11:04.859Z,51.00
2022-09-02T20:15:39.830Z,51.30
2022-09-02T20:20:19.216Z,51.30
2022-09-02T20:24:53.357Z,51.30
2022-09-02T20:29:37.837Z,51.30
2022-09-02T20:34:29.898Z,51.40
2022-09-02T20:39:25.102Z,51.50
2022-09-02T20:44:20.760Z,51.50
2022-09-02T20:49:12.626Z,51.60
2022-09-02T20:54:14.542Z,51.60
2022-09-02T20:58:57.646Z,51.70
2022-09-02T21:03:41.403Z,51.80
2022-09-02T21:08:24.586Z,51.80
2022-09-02T21:13:06.145Z,51.80
2022-09-02T21:17:48.794Z,52.70
2022-09-02T21:22:28.054Z,52.00
2022-09-02T21:27:08.991Z,52.20
2022-09-02T21:31:49.517Z,52.40
2022-09-02T21:36:30.348Z,52.60
2022-09-02T21:41:22.569Z,52.70
2022-09-02T21:46:05.709Z,52.90
2022-09-02T21:50:49.171Z,52.80
2022-09-02T21:55:49.773Z,52.90
2022-09-02T22:00:26.526Z,53.00
2022-09-02T22:05:10.314Z,53.00
2022-09-02T22:09:44.840Z,53.10
2022-09-02T22:14:28.481Z,53.20
2022-09-02T22:19:08.588Z,53.30
2022-09-02T22:23:45.052Z,53.30
2022-09-02T22:28:25.900Z,53.60
2022-09-02T22:33:08.059Z,53.90
2022-09-02T22:37:48.299Z,54.10
2022-09-02T22:42:31.921Z,54.10
2022-09-02T22:47:28.065Z,54.30
2022-09-02T22:52:27.141Z,54.40
2022-09-02T22:57:07.124Z,54.50
2022-09-02T23:01:53.758Z,54.70
2022-09-02T23:06:30.093Z,54.80
2022-09-02T23:11:11.705Z,55.00
2022-09-02T23:15:58.595Z,55.20
2022-09-02T23:20:44.627Z,55.30
2022-09-02T23:25:33.555Z,55.40
2022-09-02T23:30:09.525Z,55.70
2022-09-02T23:35:12.565Z,55.90
2022-09-02T23:39:56.502Z,56.20
2022-09-02T23:44:31.158Z,57.00
2022-09-02T23:49:14.992Z,56.40
2022-09-02T23:54:05.566Z,56.70
2022-09-02T23:59:02.364Z,56.80
